Huvudsida
METAR-TAF:

METAR-TAF

Flygplatser :

Pilanesberg International Airport

Sun City, Sydafrika

latitud: 25-20-01S, longitud: 027-10-24E, höjd: 1040 m

Aktuellt väderrapport

Denna rapport gjordes för 1 timme och 12 minuter sedan, klockan 12:00 UTC
Vind 8 kt från nord/nordväst
Temperatur 29°C
Fuktighet 10%
Tryck 1019 hPa

METAR: FAPN 191200Z AUTO 33008KT //// // ////// 29/M06 Q1019

Tid: 15:12 (13:12 UTC)


TAF: saknas

Aktuella väderrapporter och prognoser från 4000 flygplatser (METAR- och TAF-rapporter).

De tillgängliga stationerna syns som gula och röda prickar på kartan.

För musen över prickarna för att se namnen på stationerna.

Klicka sedan för att få väderrapporter och prognoser.

För att ändra kartan: Klicka på de gröna knapparna med ett svart kors på för att zooma in; den gröna knappen med ett streck på för att zooma ut; eller på de gröna pilarna för angränsande kartor.


METAR-TAF: